sensor_id;sensor_type;location;lat;lon;timestamp;P1;durP1;ratioP1;P2;durP2;ratioP2
25249;SDS011;13201;51.148;13.738;2022-07-29T00:00:39;9.43;;;1.30;;
25249;SDS011;13201;51.148;13.738;2022-07-29T00:03:05;6.18;;;1.40;;
25249;SDS011;13201;51.148;13.738;2022-07-29T00:05:31;5.45;;;1.50;;
25249;SDS011;13201;51.148;13.738;2022-07-29T00:07:56;2.70;;;1.23;;
25249;SDS011;13201;51.148;13.738;2022-07-29T00:10:22;2.92;;;1.30;;
25249;SDS011;13201;51.148;13.738;2022-07-29T00:12:48;5.20;;;1.50;;
25249;SDS011;13201;51.148;13.738;2022-07-29T00:15:13;4.40;;;1.40;;
25249;SDS011;13201;51.148;13.738;2022-07-29T00:17:39;5.82;;;1.35;;
25249;SDS011;13201;51.148;13.738;2022-07-29T00:20:05;5.20;;;1.40;;
25249;SDS011;13201;51.148;13.738;2022-07-29T00:22:31;6.72;;;1.50;;
25249;SDS011;13201;51.148;13.738;2022-07-29T00:24:57;3.13;;;1.30;;
25249;SDS011;13201;51.148;13.738;2022-07-29T00:27:22;6.65;;;1.60;;
25249;SDS011;13201;51.148;13.738;2022-07-29T00:29:48;3.28;;;1.55;;
25249;SDS011;13201;51.148;13.738;2022-07-29T00:32:14;3.53;;;1.20;;
25249;SDS011;13201;51.148;13.738;2022-07-29T00:34:39;2.38;;;1.40;;
25249;SDS011;13201;51.148;13.738;2022-07-29T00:37:24;5.80;;;1.50;;
25249;SDS011;13201;51.148;13.738;2022-07-29T00:39:50;2.88;;;1.52;;
25249;SDS011;13201;51.148;13.738;2022-07-29T00:42:16;5.03;;;1.48;;
25249;SDS011;13201;51.148;13.738;2022-07-29T00:44:42;5.43;;;1.50;;
25249;SDS011;13201;51.148;13.738;2022-07-29T00:47:08;6.37;;;1.60;;
25249;SDS011;13201;51.148;13.738;2022-07-29T00:49:35;4.85;;;1.35;;
25249;SDS011;13201;51.148;13.738;2022-07-29T00:52:04;2.55;;;1.40;;
25249;SDS011;13201;51.148;13.738;2022-07-29T00:54:31;4.35;;;1.40;;
25249;SDS011;13201;51.148;13.738;2022-07-29T00:59:23;3.97;;;1.20;;
25249;SDS011;13201;51.148;13.738;2022-07-29T01:01:50;3.80;;;1.55;;
25249;SDS011;13201;51.148;13.738;2022-07-29T01:04:15;3.90;;;1.55;;
25249;SDS011;13201;51.148;13.738;2022-07-29T01:06:42;2.17;;;1.30;;
25249;SDS011;13201;51.148;13.738;2022-07-29T01:32:33;3.33;;;1.55;;
25249;SDS011;13201;51.148;13.738;2022-07-29T01:35:03;2.35;;;1.45;;
25249;SDS011;13201;51.148;13.738;2022-07-29T01:37:47;5.07;;;1.42;;
25249;SDS011;13201;51.148;13.738;2022-07-29T01:40:21;4.53;;;1.52;;
25249;SDS011;13201;51.148;13.738;2022-07-29T01:42:52;6.25;;;1.77;;
25249;SDS011;13201;51.148;13.738;2022-07-29T01:45:23;7.22;;;1.60;;
25249;SDS011;13201;51.148;13.738;2022-07-29T01:50:28;5.28;;;1.50;;
25249;SDS011;13201;51.148;13.738;2022-07-29T01:53:10;6.25;;;1.55;;
25249;SDS011;13201;51.148;13.738;2022-07-29T01:55:40;3.70;;;1.50;;
25249;SDS011;13201;51.148;13.738;2022-07-29T01:58:09;3.35;;;1.63;;
25249;SDS011;13201;51.148;13.738;2022-07-29T02:00:37;3.42;;;1.20;;
25249;SDS011;13201;51.148;13.738;2022-07-29T02:03:07;4.50;;;1.83;;
25249;SDS011;13201;51.148;13.738;2022-07-29T02:05:35;2.75;;;1.52;;
25249;SDS011;13201;51.148;13.738;2022-07-29T02:08:02;5.65;;;2.05;;
25249;SDS011;13201;51.148;13.738;2022-07-29T02:10:31;4.60;;;1.65;;
25249;SDS011;13201;51.148;13.738;2022-07-29T02:12:58;6.97;;;1.33;;
25249;SDS011;13201;51.148;13.738;2022-07-29T02:15:26;4.82;;;1.80;;
25249;SDS011;13201;51.148;13.738;2022-07-29T02:18:12;3.80;;;1.85;;
25249;SDS011;13201;51.148;13.738;2022-07-29T02:20:47;8.48;;;2.00;;
25249;SDS011;13201;51.148;13.738;2022-07-29T02:23:16;8.55;;;1.92;;
25249;SDS011;13201;51.148;13.738;2022-07-29T02:25:45;3.08;;;1.70;;
25249;SDS011;13201;51.148;13.738;2022-07-29T02:28:14;6.07;;;1.50;;
25249;SDS011;13201;51.148;13.738;2022-07-29T02:30:42;5.28;;;2.05;;
25249;SDS011;13201;51.148;13.738;2022-07-29T02:33:09;3.95;;;1.65;;
25249;SDS011;13201;51.148;13.738;2022-07-29T02:35:39;5.07;;;1.67;;
25249;SDS011;13201;51.148;13.738;2022-07-29T02:38:06;8.57;;;1.88;;
25249;SDS011;13201;51.148;13.738;2022-07-29T02:40:52;4.07;;;1.50;;
25249;SDS011;13201;51.148;13.738;2022-07-29T02:43:20;4.95;;;1.77;;
25249;SDS011;13201;51.148;13.738;2022-07-29T02:48:14;4.55;;;1.95;;
25249;SDS011;13201;51.148;13.738;2022-07-29T02:50:48;6.90;;;1.90;;
25249;SDS011;13201;51.148;13.738;2022-07-29T02:53:20;4.72;;;1.67;;
25249;SDS011;13201;51.148;13.738;2022-07-29T02:58:19;7.18;;;1.85;;
25249;SDS011;13201;51.148;13.738;2022-07-29T03:00:53;5.43;;;1.70;;
25249;SDS011;13201;51.148;13.738;2022-07-29T03:03:22;5.30;;;1.85;;
25249;SDS011;13201;51.148;13.738;2022-07-29T03:05:54;16.42;;;2.30;;
25249;SDS011;13201;51.148;13.738;2022-07-29T03:08:21;53.53;;;4.88;;
25249;SDS011;13201;51.148;13.738;2022-07-29T03:10:48;18.55;;;2.63;;
25249;SDS011;13201;51.148;13.738;2022-07-29T03:13:14;7.70;;;1.85;;
25249;SDS011;13201;51.148;13.738;2022-07-29T03:15:44;23.90;;;3.50;;
25249;SDS011;13201;51.148;13.738;2022-07-29T03:18:10;12.55;;;2.33;;
25249;SDS011;13201;51.148;13.738;2022-07-29T03:20:37;12.23;;;2.40;;
25249;SDS011;13201;51.148;13.738;2022-07-29T03:23:03;7.88;;;1.90;;
25249;SDS011;13201;51.148;13.738;2022-07-29T03:25:29;7.57;;;2.38;;
25249;SDS011;13201;51.148;13.738;2022-07-29T03:27:55;23.23;;;3.15;;
25249;SDS011;13201;51.148;13.738;2022-07-29T03:30:22;8.80;;;2.60;;
25249;SDS011;13201;51.148;13.738;2022-07-29T03:32:48;7.77;;;2.20;;
25249;SDS011;13201;51.148;13.738;2022-07-29T03:35:14;7.38;;;1.92;;
25249;SDS011;13201;51.148;13.738;2022-07-29T03:37:44;10.20;;;2.13;;
25249;SDS011;13201;51.148;13.738;2022-07-29T03:40:11;20.20;;;3.63;;
25249;SDS011;13201;51.148;13.738;2022-07-29T03:42:41;16.65;;;2.45;;
25249;SDS011;13201;51.148;13.738;2022-07-29T03:45:10;6.15;;;2.20;;
25249;SDS011;13201;51.148;13.738;2022-07-29T03:47:39;6.72;;;2.10;;
25249;SDS011;13201;51.148;13.738;2022-07-29T03:50:09;5.90;;;1.92;;
25249;SDS011;13201;51.148;13.738;2022-07-29T03:52:38;5.47;;;2.30;;
25249;SDS011;13201;51.148;13.738;2022-07-29T03:55:04;15.43;;;2.33;;
25249;SDS011;13201;51.148;13.738;2022-07-29T03:57:30;18.48;;;2.95;;
25249;SDS011;13201;51.148;13.738;2022-07-29T03:59:58;21.63;;;3.47;;
25249;SDS011;13201;51.148;13.738;2022-07-29T04:02:25;22.38;;;2.50;;
25249;SDS011;13201;51.148;13.738;2022-07-29T04:04:51;15.80;;;2.28;;
25249;SDS011;13201;51.148;13.738;2022-07-29T04:07:17;22.55;;;2.97;;
25249;SDS011;13201;51.148;13.738;2022-07-29T04:09:43;39.60;;;4.20;;
25249;SDS011;13201;51.148;13.738;2022-07-29T04:12:08;42.83;;;4.70;;
25249;SDS011;13201;51.148;13.738;2022-07-29T04:14:35;16.70;;;3.07;;
25249;SDS011;13201;51.148;13.738;2022-07-29T04:17:01;9.55;;;2.35;;
25249;SDS011;13201;51.148;13.738;2022-07-29T04:19:28;13.55;;;2.75;;
25249;SDS011;13201;51.148;13.738;2022-07-29T04:21:53;8.90;;;2.90;;
25249;SDS011;13201;51.148;13.738;2022-07-29T04:24:19;9.82;;;2.88;;
25249;SDS011;13201;51.148;13.738;2022-07-29T04:26:45;12.48;;;2.92;;
25249;SDS011;13201;51.148;13.738;2022-07-29T04:29:11;26.13;;;3.13;;
25249;SDS011;13201;51.148;13.738;2022-07-29T04:31:39;12.15;;;2.33;;
25249;SDS011;13201;51.148;13.738;2022-07-29T04:34:05;15.20;;;2.40;;
25249;SDS011;13201;51.148;13.738;2022-07-29T04:36:31;10.13;;;2.92;;
25249;SDS011;13201;51.148;13.738;2022-07-29T04:38:56;6.93;;;2.50;;
25249;SDS011;13201;51.148;13.738;2022-07-29T04:41:22;9.35;;;2.30;;
25249;SDS011;13201;51.148;13.738;2022-07-29T04:43:48;5.15;;;2.45;;
25249;SDS011;13201;51.148;13.738;2022-07-29T04:46:14;8.68;;;2.35;;
25249;SDS011;13201;51.148;13.738;2022-07-29T04:48:40;7.43;;;2.13;;
25249;SDS011;13201;51.148;13.738;2022-07-29T04:51:06;6.63;;;2.30;;
25249;SDS011;13201;51.148;13.738;2022-07-29T04:53:31;9.95;;;2.83;;
25249;SDS011;13201;51.148;13.738;2022-07-29T04:55:57;7.65;;;2.30;;
25249;SDS011;13201;51.148;13.738;2022-07-29T04:58:23;6.55;;;2.17;;
25249;SDS011;13201;51.148;13.738;2022-07-29T05:00:49;9.70;;;1.92;;
25249;SDS011;13201;51.148;13.738;2022-07-29T05:03:15;14.10;;;2.35;;
25249;SDS011;13201;51.148;13.738;2022-07-29T05:05:41;4.50;;;2.25;;
25249;SDS011;13201;51.148;13.738;2022-07-29T05:08:07;12.32;;;2.50;;
25249;SDS011;13201;51.148;13.738;2022-07-29T05:10:33;20.85;;;2.90;;
25249;SDS011;13201;51.148;13.738;2022-07-29T05:13:03;9.35;;;2.30;;
25249;SDS011;13201;51.148;13.738;2022-07-29T05:15:33;6.60;;;2.10;;
25249;SDS011;13201;51.148;13.738;2022-07-29T05:17:59;6.65;;;2.45;;
25249;SDS011;13201;51.148;13.738;2022-07-29T05:20:25;7.10;;;2.25;;
25249;SDS011;13201;51.148;13.738;2022-07-29T05:22:53;6.82;;;2.33;;
25249;SDS011;13201;51.148;13.738;2022-07-29T05:27:46;6.03;;;2.42;;
25249;SDS011;13201;51.148;13.738;2022-07-29T05:30:11;7.55;;;2.22;;
25249;SDS011;13201;51.148;13.738;2022-07-29T05:32:37;11.27;;;2.30;;
25249;SDS011;13201;51.148;13.738;2022-07-29T05:35:03;7.38;;;2.25;;
25249;SDS011;13201;51.148;13.738;2022-07-29T05:37:29;11.32;;;2.50;;
25249;SDS011;13201;51.148;13.738;2022-07-29T05:39:54;9.00;;;2.28;;
25249;SDS011;13201;51.148;13.738;2022-07-29T05:42:20;10.75;;;2.30;;
25249;SDS011;13201;51.148;13.738;2022-07-29T05:44:46;6.47;;;2.40;;
25249;SDS011;13201;51.148;13.738;2022-07-29T05:47:12;10.80;;;2.53;;
25249;SDS011;13201;51.148;13.738;2022-07-29T05:49:38;5.03;;;1.90;;
25249;SDS011;13201;51.148;13.738;2022-07-29T05:52:04;7.22;;;2.35;;
25249;SDS011;13201;51.148;13.738;2022-07-29T05:54:30;4.35;;;1.80;;
25249;SDS011;13201;51.148;13.738;2022-07-29T05:56:55;6.85;;;2.17;;
25249;SDS011;13201;51.148;13.738;2022-07-29T05:59:21;5.32;;;1.63;;
25249;SDS011;13201;51.148;13.738;2022-07-29T06:01:47;8.50;;;2.10;;
25249;SDS011;13201;51.148;13.738;2022-07-29T06:04:12;3.65;;;1.90;;
25249;SDS011;13201;51.148;13.738;2022-07-29T06:06:38;5.80;;;1.90;;
25249;SDS011;13201;51.148;13.738;2022-07-29T06:09:04;4.88;;;1.85;;
25249;SDS011;13201;51.148;13.738;2022-07-29T06:11:29;4.60;;;1.80;;
25249;SDS011;13201;51.148;13.738;2022-07-29T06:13:55;4.13;;;2.10;;
25249;SDS011;13201;51.148;13.738;2022-07-29T06:16:21;5.32;;;2.20;;
25249;SDS011;13201;51.148;13.738;2022-07-29T06:18:46;5.22;;;2.05;;
25249;SDS011;13201;51.148;13.738;2022-07-29T06:21:12;9.20;;;2.03;;
25249;SDS011;13201;51.148;13.738;2022-07-29T06:23:38;5.97;;;1.88;;
25249;SDS011;13201;51.148;13.738;2022-07-29T06:26:05;7.93;;;2.60;;
25249;SDS011;13201;51.148;13.738;2022-07-29T06:28:31;8.73;;;2.30;;
25249;SDS011;13201;51.148;13.738;2022-07-29T06:30:57;9.98;;;2.08;;
25249;SDS011;13201;51.148;13.738;2022-07-29T06:33:23;6.43;;;2.67;;
25249;SDS011;13201;51.148;13.738;2022-07-29T06:35:49;5.60;;;2.03;;
25249;SDS011;13201;51.148;13.738;2022-07-29T06:38:15;4.10;;;2.28;;
25249;SDS011;13201;51.148;13.738;2022-07-29T06:40:41;8.15;;;2.30;;
25249;SDS011;13201;51.148;13.738;2022-07-29T06:43:28;7.15;;;2.20;;
25249;SDS011;13201;51.148;13.738;2022-07-29T06:45:56;6.07;;;2.20;;
25249;SDS011;13201;51.148;13.738;2022-07-29T06:48:26;9.00;;;2.40;;
25249;SDS011;13201;51.148;13.738;2022-07-29T06:50:52;3.43;;;1.80;;
25249;SDS011;13201;51.148;13.738;2022-07-29T06:53:18;6.25;;;2.00;;
25249;SDS011;13201;51.148;13.738;2022-07-29T06:55:44;8.68;;;2.00;;
25249;SDS011;13201;51.148;13.738;2022-07-29T06:58:09;5.85;;;1.90;;
25249;SDS011;13201;51.148;13.738;2022-07-29T07:00:35;4.10;;;2.30;;
25249;SDS011;13201;51.148;13.738;2022-07-29T07:03:02;3.80;;;1.63;;
25249;SDS011;13201;51.148;13.738;2022-07-29T07:05:27;9.63;;;2.38;;
25249;SDS011;13201;51.148;13.738;2022-07-29T07:07:53;9.75;;;2.70;;
25249;SDS011;13201;51.148;13.738;2022-07-29T07:10:18;8.10;;;2.58;;
25249;SDS011;13201;51.148;13.738;2022-07-29T07:12:44;6.78;;;2.47;;
25249;SDS011;13201;51.148;13.738;2022-07-29T07:15:10;7.97;;;2.78;;
25249;SDS011;13201;51.148;13.738;2022-07-29T07:17:35;8.65;;;2.10;;
25249;SDS011;13201;51.148;13.738;2022-07-29T07:20:03;6.97;;;2.10;;
25249;SDS011;13201;51.148;13.738;2022-07-29T07:22:30;4.93;;;2.17;;
25249;SDS011;13201;51.148;13.738;2022-07-29T07:24:55;5.35;;;2.10;;
25249;SDS011;13201;51.148;13.738;2022-07-29T07:27:21;4.35;;;2.30;;
25249;SDS011;13201;51.148;13.738;2022-07-29T07:29:47;8.43;;;2.90;;
25249;SDS011;13201;51.148;13.738;2022-07-29T07:32:13;11.77;;;2.42;;
25249;SDS011;13201;51.148;13.738;2022-07-29T07:34:41;9.20;;;2.30;;
25249;SDS011;13201;51.148;13.738;2022-07-29T07:37:07;12.90;;;2.75;;
25249;SDS011;13201;51.148;13.738;2022-07-29T07:39:33;8.73;;;2.20;;
25249;SDS011;13201;51.148;13.738;2022-07-29T07:41:59;7.03;;;2.30;;
25249;SDS011;13201;51.148;13.738;2022-07-29T07:44:24;6.72;;;2.42;;
25249;SDS011;13201;51.148;13.738;2022-07-29T07:46:50;7.88;;;2.35;;
25249;SDS011;13201;51.148;13.738;2022-07-29T07:49:16;9.05;;;2.17;;
25249;SDS011;13201;51.148;13.738;2022-07-29T07:51:41;5.20;;;2.08;;
25249;SDS011;13201;51.148;13.738;2022-07-29T07:54:07;8.63;;;2.55;;
25249;SDS011;13201;51.148;13.738;2022-07-29T07:56:32;18.13;;;2.88;;
25249;SDS011;13201;51.148;13.738;2022-07-29T07:58:58;11.57;;;2.58;;
25249;SDS011;13201;51.148;13.738;2022-07-29T08:01:24;11.57;;;2.20;;
25249;SDS011;13201;51.148;13.738;2022-07-29T08:03:49;24.83;;;3.78;;
25249;SDS011;13201;51.148;13.738;2022-07-29T08:06:15;13.07;;;2.72;;
25249;SDS011;13201;51.148;13.738;2022-07-29T08:08:41;19.48;;;2.80;;
25249;SDS011;13201;51.148;13.738;2022-07-29T08:11:07;14.20;;;2.35;;
25249;SDS011;13201;51.148;13.738;2022-07-29T08:13:32;16.63;;;2.78;;
25249;SDS011;13201;51.148;13.738;2022-07-29T08:15:58;15.10;;;2.83;;
25249;SDS011;13201;51.148;13.738;2022-07-29T08:18:26;11.93;;;2.53;;
25249;SDS011;13201;51.148;13.738;2022-07-29T08:20:53;10.93;;;4.60;;
25249;SDS011;13201;51.148;13.738;2022-07-29T08:23:19;12.77;;;4.05;;
25249;SDS011;13201;51.148;13.738;2022-07-29T08:25:45;7.28;;;3.80;;
25249;SDS011;13201;51.148;13.738;2022-07-29T08:28:11;7.53;;;3.97;;
25249;SDS011;13201;51.148;13.738;2022-07-29T08:30:37;11.68;;;3.90;;
25249;SDS011;13201;51.148;13.738;2022-07-29T08:33:03;10.93;;;3.75;;
25249;SDS011;13201;51.148;13.738;2022-07-29T08:35:29;8.03;;;4.03;;
25249;SDS011;13201;51.148;13.738;2022-07-29T08:37:54;13.07;;;4.20;;
25249;SDS011;13201;51.148;13.738;2022-07-29T08:42:48;21.35;;;8.95;;
25249;SDS011;13201;51.148;13.738;2022-07-29T08:45:14;22.38;;;10.60;;
25249;SDS011;13201;51.148;13.738;2022-07-29T08:47:40;20.25;;;9.77;;
25249;SDS011;13201;51.148;13.738;2022-07-29T08:50:09;21.55;;;9.73;;
25249;SDS011;13201;51.148;13.738;2022-07-29T08:52:36;20.55;;;10.40;;
25249;SDS011;13201;51.148;13.738;2022-07-29T08:55:04;28.65;;;18.13;;
25249;SDS011;13201;51.148;13.738;2022-07-29T08:57:34;23.80;;;10.93;;
25249;SDS011;13201;51.148;13.738;2022-07-29T09:00:01;22.30;;;9.77;;
25249;SDS011;13201;51.148;13.738;2022-07-29T09:02:30;23.52;;;11.00;;
25249;SDS011;13201;51.148;13.738;2022-07-29T09:05:00;23.73;;;9.35;;
25249;SDS011;13201;51.148;13.738;2022-07-29T09:09:53;20.87;;;10.33;;
25249;SDS011;13201;51.148;13.738;2022-07-29T09:12:19;24.02;;;10.85;;
25249;SDS011;13201;51.148;13.738;2022-07-29T09:14:47;23.95;;;10.93;;
25249;SDS011;13201;51.148;13.738;2022-07-29T09:17:12;23.02;;;10.93;;
25249;SDS011;13201;51.148;13.738;2022-07-29T09:19:41;24.88;;;11.82;;
25249;SDS011;13201;51.148;13.738;2022-07-29T09:22:07;34.67;;;12.27;;
25249;SDS011;13201;51.148;13.738;2022-07-29T09:27:12;24.75;;;12.07;;
25249;SDS011;13201;51.148;13.738;2022-07-29T09:29:54;28.58;;;11.77;;
25249;SDS011;13201;51.148;13.738;2022-07-29T09:32:29;24.13;;;12.02;;
25249;SDS011;13201;51.148;13.738;2022-07-29T09:38:09;22.02;;;9.98;;
25249;SDS011;13201;51.148;13.738;2022-07-29T09:40:38;18.00;;;8.55;;
25249;SDS011;13201;51.148;13.738;2022-07-29T09:43:10;15.83;;;8.07;;
25249;SDS011;13201;51.148;13.738;2022-07-29T09:45:37;18.50;;;8.88;;
25249;SDS011;13201;51.148;13.738;2022-07-29T09:48:16;18.67;;;8.47;;
25249;SDS011;13201;51.148;13.738;2022-07-29T09:50:44;18.42;;;8.00;;
25249;SDS011;13201;51.148;13.738;2022-07-29T09:53:11;14.77;;;8.32;;
25249;SDS011;13201;51.148;13.738;2022-07-29T09:55:54;21.63;;;8.77;;
25249;SDS011;13201;51.148;13.738;2022-07-29T09:58:20;22.70;;;9.27;;
25249;SDS011;13201;51.148;13.738;2022-07-29T10:00:48;22.17;;;9.48;;
25249;SDS011;13201;51.148;13.738;2022-07-29T10:03:15;22.10;;;10.75;;
25249;SDS011;13201;51.148;13.738;2022-07-29T10:05:41;15.10;;;7.03;;
25249;SDS011;13201;51.148;13.738;2022-07-29T10:08:08;11.93;;;6.07;;
25249;SDS011;13201;51.148;13.738;2022-07-29T10:10:36;12.98;;;6.32;;
25249;SDS011;13201;51.148;13.738;2022-07-29T10:13:07;18.67;;;6.70;;
25249;SDS011;13201;51.148;13.738;2022-07-29T10:15:35;9.50;;;6.05;;
25249;SDS011;13201;51.148;13.738;2022-07-29T10:18:04;9.35;;;5.38;;
25249;SDS011;13201;51.148;13.738;2022-07-29T10:20:31;12.35;;;5.60;;
25249;SDS011;13201;51.148;13.738;2022-07-29T10:22:56;10.73;;;5.87;;
25249;SDS011;13201;51.148;13.738;2022-07-29T10:25:23;19.03;;;9.13;;
25249;SDS011;13201;51.148;13.738;2022-07-29T10:27:49;17.23;;;8.10;;
25249;SDS011;13201;51.148;13.738;2022-07-29T10:30:19;15.30;;;6.15;;
25249;SDS011;13201;51.148;13.738;2022-07-29T10:43:59;12.18;;;6.15;;
25249;SDS011;13201;51.148;13.738;2022-07-29T10:46:25;13.23;;;6.55;;
25249;SDS011;13201;51.148;13.738;2022-07-29T11:05:04;14.37;;;6.70;;
25249;SDS011;13201;51.148;13.738;2022-07-29T11:07:31;14.82;;;7.43;;
25249;SDS011;13201;51.148;13.738;2022-07-29T11:10:41;18.38;;;8.32;;
25249;SDS011;13201;51.148;13.738;2022-07-29T11:12:48;13.38;;;8.20;;
25249;SDS011;13201;51.148;13.738;2022-07-29T11:15:15;16.30;;;8.52;;
25249;SDS011;13201;51.148;13.738;2022-07-29T11:23:26;18.25;;;8.85;;
25249;SDS011;13201;51.148;13.738;2022-07-29T11:31:34;9.38;;;4.82;;
25249;SDS011;13201;51.148;13.738;2022-07-29T11:47:32;9.55;;;4.75;;
25249;SDS011;13201;51.148;13.738;2022-07-29T11:50:00;14.73;;;5.32;;
25249;SDS011;13201;51.148;13.738;2022-07-29T11:52:33;10.27;;;5.25;;
25249;SDS011;13201;51.148;13.738;2022-07-29T11:55:08;7.28;;;4.78;;
25249;SDS011;13201;51.148;13.738;2022-07-29T11:57:35;12.23;;;4.10;;
25249;SDS011;13201;51.148;13.738;2022-07-29T12:00:02;10.50;;;4.07;;
25249;SDS011;13201;51.148;13.738;2022-07-29T12:02:40;7.80;;;4.78;;
25249;SDS011;13201;51.148;13.738;2022-07-29T12:05:07;14.05;;;5.22;;
25249;SDS011;13201;51.148;13.738;2022-07-29T12:07:34;13.63;;;5.18;;
25249;SDS011;13201;51.148;13.738;2022-07-29T12:10:00;13.20;;;5.23;;
25249;SDS011;13201;51.148;13.738;2022-07-29T12:14:52;8.50;;;4.37;;
25249;SDS011;13201;51.148;13.738;2022-07-29T12:17:29;9.98;;;4.15;;
25249;SDS011;13201;51.148;13.738;2022-07-29T12:19:57;16.83;;;4.13;;
25249;SDS011;13201;51.148;13.738;2022-07-29T12:22:28;9.82;;;4.25;;
25249;SDS011;13201;51.148;13.738;2022-07-29T12:24:54;10.25;;;4.82;;
25249;SDS011;13201;51.148;13.738;2022-07-29T12:27:21;10.77;;;4.75;;
25249;SDS011;13201;51.148;13.738;2022-07-29T12:29:56;9.43;;;4.73;;
25249;SDS011;13201;51.148;13.738;2022-07-29T12:32:23;12.38;;;5.38;;
25249;SDS011;13201;51.148;13.738;2022-07-29T12:34:49;13.83;;;4.77;;
25249;SDS011;13201;51.148;13.738;2022-07-29T12:37:15;23.02;;;5.88;;
25249;SDS011;13201;51.148;13.738;2022-07-29T12:39:41;14.80;;;5.57;;
25249;SDS011;13201;51.148;13.738;2022-07-29T12:42:11;10.13;;;5.10;;
25249;SDS011;13201;51.148;13.738;2022-07-29T12:44:47;10.00;;;5.63;;
25249;SDS011;13201;51.148;13.738;2022-07-29T12:47:14;10.47;;;5.43;;
25249;SDS011;13201;51.148;13.738;2022-07-29T12:49:40;8.82;;;5.07;;
25249;SDS011;13201;51.148;13.738;2022-07-29T12:54:50;10.70;;;5.75;;
25249;SDS011;13201;51.148;13.738;2022-07-29T12:57:16;12.20;;;5.60;;
25249;SDS011;13201;51.148;13.738;2022-07-29T12:59:41;11.03;;;6.10;;
25249;SDS011;13201;51.148;13.738;2022-07-29T13:02:19;13.07;;;6.57;;
25249;SDS011;13201;51.148;13.738;2022-07-29T13:04:55;13.45;;;6.38;;
25249;SDS011;13201;51.148;13.738;2022-07-29T13:07:25;12.38;;;6.65;;
25249;SDS011;13201;51.148;13.738;2022-07-29T13:09:53;13.95;;;6.97;;
25249;SDS011;13201;51.148;13.738;2022-07-29T13:12:19;13.40;;;7.13;;
25249;SDS011;13201;51.148;13.738;2022-07-29T13:14:48;11.65;;;6.03;;
25249;SDS011;13201;51.148;13.738;2022-07-29T13:17:21;12.13;;;6.13;;
25249;SDS011;13201;51.148;13.738;2022-07-29T13:20:05;13.20;;;7.10;;
25249;SDS011;13201;51.148;13.738;2022-07-29T13:22:34;16.05;;;7.43;;
25249;SDS011;13201;51.148;13.738;2022-07-29T13:25:00;13.07;;;7.17;;
25249;SDS011;13201;51.148;13.738;2022-07-29T13:27:27;18.92;;;9.35;;
25249;SDS011;13201;51.148;13.738;2022-07-29T13:29:57;14.45;;;7.90;;
25249;SDS011;13201;51.148;13.738;2022-07-29T13:32:24;15.32;;;8.85;;
25249;SDS011;13201;51.148;13.738;2022-07-29T13:34:52;22.42;;;13.52;;
25249;SDS011;13201;51.148;13.738;2022-07-29T13:37:18;24.58;;;12.48;;
25249;SDS011;13201;51.148;13.738;2022-07-29T13:39:44;15.35;;;9.57;;
25249;SDS011;13201;51.148;13.738;2022-07-29T13:42:10;15.45;;;8.98;;
25249;SDS011;13201;51.148;13.738;2022-07-29T13:44:38;14.15;;;8.55;;
25249;SDS011;13201;51.148;13.738;2022-07-29T13:49:30;17.38;;;7.93;;
25249;SDS011;13201;51.148;13.738;2022-07-29T13:51:56;14.27;;;7.63;;
25249;SDS011;13201;51.148;13.738;2022-07-29T13:54:22;15.27;;;7.88;;
25249;SDS011;13201;51.148;13.738;2022-07-29T13:56:49;15.32;;;7.95;;
25249;SDS011;13201;51.148;13.738;2022-07-29T14:01:40;13.97;;;7.63;;
25249;SDS011;13201;51.148;13.738;2022-07-29T14:04:07;13.68;;;7.90;;
25249;SDS011;13201;51.148;13.738;2022-07-29T14:06:33;15.13;;;7.10;;
25249;SDS011;13201;51.148;13.738;2022-07-29T14:08:59;12.40;;;6.43;;
25249;SDS011;13201;51.148;13.738;2022-07-29T14:11:25;24.38;;;6.40;;
25249;SDS011;13201;51.148;13.738;2022-07-29T14:13:51;11.93;;;6.53;;
25249;SDS011;13201;51.148;13.738;2022-07-29T14:16:16;10.80;;;6.20;;
25249;SDS011;13201;51.148;13.738;2022-07-29T14:18:42;13.50;;;7.13;;
25249;SDS011;13201;51.148;13.738;2022-07-29T14:21:08;12.77;;;6.80;;
25249;SDS011;13201;51.148;13.738;2022-07-29T14:23:33;12.37;;;7.13;;
25249;SDS011;13201;51.148;13.738;2022-07-29T14:25:59;17.40;;;6.80;;
25249;SDS011;13201;51.148;13.738;2022-07-29T14:28:25;18.97;;;7.13;;
25249;SDS011;13201;51.148;13.738;2022-07-29T14:30:50;10.67;;;5.90;;
25249;SDS011;13201;51.148;13.738;2022-07-29T14:33:16;10.90;;;6.30;;
25249;SDS011;13201;51.148;13.738;2022-07-29T14:35:42;11.37;;;5.73;;
25249;SDS011;13201;51.148;13.738;2022-07-29T14:38:08;8.43;;;5.65;;
25249;SDS011;13201;51.148;13.738;2022-07-29T14:40:34;12.13;;;5.40;;
25249;SDS011;13201;51.148;13.738;2022-07-29T14:42:59;11.40;;;5.50;;
25249;SDS011;13201;51.148;13.738;2022-07-29T14:47:53;17.25;;;10.77;;
25249;SDS011;13201;51.148;13.738;2022-07-29T14:50:18;17.93;;;11.13;;
25249;SDS011;13201;51.148;13.738;2022-07-29T14:52:44;14.23;;;7.17;;
25249;SDS011;13201;51.148;13.738;2022-07-29T14:55:10;11.47;;;6.90;;
25249;SDS011;13201;51.148;13.738;2022-07-29T14:57:35;9.37;;;6.50;;
25249;SDS011;13201;51.148;13.738;2022-07-29T15:00:02;13.70;;;7.67;;
25249;SDS011;13201;51.148;13.738;2022-07-29T15:02:29;12.25;;;6.78;;
25249;SDS011;13201;51.148;13.738;2022-07-29T15:04:55;13.43;;;6.70;;
25249;SDS011;13201;51.148;13.738;2022-07-29T15:07:21;16.92;;;7.95;;
25249;SDS011;13201;51.148;13.738;2022-07-29T15:09:46;15.67;;;8.50;;
25249;SDS011;13201;51.148;13.738;2022-07-29T15:12:12;12.63;;;8.13;;
25249;SDS011;13201;51.148;13.738;2022-07-29T15:14:38;18.87;;;8.03;;
25249;SDS011;13201;51.148;13.738;2022-07-29T15:17:04;16.10;;;8.60;;
25249;SDS011;13201;51.148;13.738;2022-07-29T15:19:29;14.33;;;7.50;;
25249;SDS011;13201;51.148;13.738;2022-07-29T15:21:55;14.13;;;7.77;;
25249;SDS011;13201;51.148;13.738;2022-07-29T15:24:21;25.77;;;10.47;;
25249;SDS011;13201;51.148;13.738;2022-07-29T15:26:47;17.13;;;8.00;;
25249;SDS011;13201;51.148;13.738;2022-07-29T15:29:12;10.17;;;6.40;;
25249;SDS011;13201;51.148;13.738;2022-07-29T15:31:39;10.18;;;4.88;;
25249;SDS011;13201;51.148;13.738;2022-07-29T15:34:04;12.83;;;4.47;;
25249;SDS011;13201;51.148;13.738;2022-07-29T15:36:30;6.87;;;3.73;;
25249;SDS011;13201;51.148;13.738;2022-07-29T15:38:56;7.53;;;3.93;;
25249;SDS011;13201;51.148;13.738;2022-07-29T15:41:21;5.77;;;3.43;;
25249;SDS011;13201;51.148;13.738;2022-07-29T15:43:47;5.77;;;3.47;;
25249;SDS011;13201;51.148;13.738;2022-07-29T15:46:14;6.10;;;3.88;;
25249;SDS011;13201;51.148;13.738;2022-07-29T15:51:26;7.10;;;4.50;;
25249;SDS011;13201;51.148;13.738;2022-07-29T15:53:51;19.40;;;12.67;;
25249;SDS011;13201;51.148;13.738;2022-07-29T15:56:17;8.13;;;5.13;;
25249;SDS011;13201;51.148;13.738;2022-07-29T15:58:43;5.80;;;4.33;;
25249;SDS011;13201;51.148;13.738;2022-07-29T16:01:08;10.13;;;4.50;;
25249;SDS011;13201;51.148;13.738;2022-07-29T16:03:35;8.93;;;4.18;;
25249;SDS011;13201;51.148;13.738;2022-07-29T16:06:00;13.13;;;4.30;;
25249;SDS011;13201;51.148;13.738;2022-07-29T16:08:26;10.30;;;4.20;;
25249;SDS011;13201;51.148;13.738;2022-07-29T16:10:52;13.87;;;4.40;;
25249;SDS011;13201;51.148;13.738;2022-07-29T16:13:17;6.43;;;3.43;;
25249;SDS011;13201;51.148;13.738;2022-07-29T16:15:43;10.23;;;4.10;;
25249;SDS011;13201;51.148;13.738;2022-07-29T16:18:09;6.03;;;3.80;;
25249;SDS011;13201;51.148;13.738;2022-07-29T16:20:35;6.67;;;3.67;;